Holland, Pennsylvania
Current Conditions -  °F | °C
As of 11:54 AM on Thursday 23 Oct 2014 (Local Time) from KPNE Reporting Station
Overcast Overcast  
Wind Chill: 53°   Ceiling: 4500
Heat Index: 53°   Visibility: 9mi
Dew Point: 45°   Wind: 17mph
Humidity: 74%   Direction: 330°NNW
Pressure: 29.78"   Gusts: 28mph
Location:  40.1871°N, 75.0054°W
Report Text: KPNE 231554Z 33015G24KT 9SM BKN045 OVC055 12/07 A2978 RMK AO2 RAB00E39 SLP084 P0000 T01170072 $
Loading
Personal Weather Stations






























Interactive Weather Map
Tropical Storm Tracking
New forecast layout! Learn more

10-Day Weather Forecast

Advertisements
Track Severe Weather on mobile